Time;durP1;ratioP1;P1;durP2;ratioP2;P2;SDS_P1;SDS_P2;PMS_P1;PMS_P2;Temp;Humidity;BMP_temperature;BMP_pressure;BME280_temperature;BME280_humidity;BME280_pressure;Samples;Min_cycle;Max_cycle;Signal;HPM_P1;HPM_P2
2022/03/30 00:00:35;;;;;;;0.00;0.00;;;;;;;12.86;58.35;98470.03;6277226;22;20031;-81
2022/03/30 00:03:00;;;;;;;0.10;0.10;;;;;;;12.81;58.69;98465.56;6277700;22;20099;-84
2022/03/30 00:05:25;;;;;;;0.40;0.40;;;;;;;12.79;58.65;98464.28;6277471;22;20060;-81
2022/03/30 00:07:52;;;;;;;0.15;0.15;;;;;;;12.84;58.25;98460.69;6277215;22;20349;-78
2022/03/30 00:10:18;;;;;;;0.00;0.00;;;;;;;12.80;58.13;98455.13;6277426;22;20010;-78
2022/03/30 00:12:43;;;;;;;0.20;0.20;;;;;;;12.85;58.12;98464.97;6277213;22;19999;-78
2022/03/30 00:15:09;;;;;;;0.10;0.10;;;;;;;12.84;58.14;98461.50;6304628;22;20004;-80
2022/03/30 00:17:35;;;;;;;0.00;0.00;;;;;;;12.79;57.90;98459.72;6277246;22;20013;-79
2022/03/30 00:20:02;;;;;;;0.00;0.00;;;;;;;12.74;57.73;98456.34;6304351;22;20003;-80
2022/03/30 00:22:28;;;;;;;0.00;0.00;;;;;;;12.69;57.83;98459.16;6277280;22;20082;-79
2022/03/30 00:24:53;;;;;;;0.00;0.00;;;;;;;12.64;58.00;98457.41;6304486;22;20074;-78
2022/03/30 00:27:19;;;;;;;0.03;0.03;;;;;;;12.61;57.65;98456.13;6277640;22;20045;-78
2022/03/30 00:29:45;;;;;;;0.00;0.00;;;;;;;12.61;57.97;98450.75;6304257;22;20353;-78
2022/03/30 00:32:11;;;;;;;0.30;0.30;;;;;;;12.60;57.99;98454.53;6277400;22;20045;-77
2022/03/30 00:34:36;;;;;;;0.00;0.00;;;;;;;12.57;58.19;98439.06;6304608;22;20068;-78
2022/03/30 00:37:02;;;;;;;0.00;0.00;;;;;;;12.61;57.99;98452.66;6304113;22;20387;-81
2022/03/30 00:39:28;;;;;;;0.00;0.00;;;;;;;12.58;58.11;98453.25;6277357;22;20007;-79
2022/03/30 00:41:53;;;;;;;0.00;0.00;;;;;;;12.54;58.03;98438.88;6276640;22;20356;-84
2022/03/30 00:44:19;;;;;;;0.00;0.00;;;;;;;12.51;58.11;98448.28;6277346;22;20007;-83
2022/03/30 00:46:45;;;;;;;0.00;0.00;;;;;;;12.50;58.04;98454.78;6277131;22;20060;-81
2022/03/30 00:49:13;;;;;;;0.00;0.00;;;;;;;12.44;58.42;98446.03;6277265;22;20353;-82
2022/03/30 00:51:39;;;;;;;0.00;0.00;;;;;;;12.50;58.03;98452.09;6276809;22;20014;-83
2022/03/30 00:54:05;;;;;;;0.00;0.00;;;;;;;12.47;58.03;98445.44;6277179;22;20007;-79
2022/03/30 00:56:33;;;;;;;0.00;0.00;;;;;;;12.46;58.27;98451.09;6304632;22;20056;-80
2022/03/30 00:59:01;;;;;;;0.00;0.00;;;;;;;12.43;57.89;98452.50;6277446;22;20082;-79
2022/03/30 01:01:28;;;;;;;0.00;0.00;;;;;;;12.43;57.94;98446.34;6277239;22;20008;-83
2022/03/30 01:03:53;;;;;;;0.00;0.00;;;;;;;12.40;58.19;98438.91;6279104;22;20078;-83
2022/03/30 01:06:19;;;;;;;0.00;0.00;;;;;;;12.38;58.48;98443.75;6279141;22;20039;-82
2022/03/30 01:08:46;;;;;;;0.00;0.00;;;;;;;12.37;57.62;98442.19;6278783;22;20003;-84
2022/03/30 01:11:11;;;;;;;0.00;0.00;;;;;;;12.32;58.11;98435.06;6279241;22;20011;-85
2022/03/30 01:13:38;;;;;;;0.00;0.00;;;;;;;12.32;57.99;98432.38;6278849;22;20007;-86
2022/03/30 01:16:04;;;;;;;0.00;0.00;;;;;;;12.28;58.41;98432.19;6279112;22;20003;-78
2022/03/30 01:18:29;;;;;;;0.00;0.00;;;;;;;12.30;57.99;98431.88;6279142;22;20383;-78
2022/03/30 01:20:55;;;;;;;0.10;0.10;;;;;;;12.31;58.37;98428.88;6306092;22;20078;-78
2022/03/30 01:23:20;;;;;;;0.00;0.00;;;;;;;12.28;58.04;98416.09;6278807;22;20431;-77
2022/03/30 01:25:45;;;;;;;0.00;0.00;;;;;;;12.30;58.05;98429.19;6278505;22;20408;-81
2022/03/30 01:28:12;;;;;;;0.00;0.00;;;;;;;12.26;58.08;98420.19;6279086;22;20460;-82
2022/03/30 01:33:21;;;;;;;0.10;0.10;;;;;;;12.24;58.21;98419.69;6306162;22;20506;-79
2022/03/30 01:35:46;;;;;;;0.00;0.00;;;;;;;12.20;58.08;98419.50;6278596;22;20012;-80
2022/03/30 01:38:12;;;;;;;0.00;0.00;;;;;;;12.16;57.98;98418.50;6278823;22;20015;-83
2022/03/30 01:40:39;;;;;;;0.00;0.00;;;;;;;12.16;58.00;98421.19;6278530;22;20010;-81
2022/03/30 01:43:05;;;;;;;0.00;0.00;;;;;;;12.14;58.02;98426.06;6278919;22;19999;-82
2022/03/30 01:45:30;;;;;;;0.00;0.00;;;;;;;12.09;58.02;98428.84;6278728;22;20079;-82
2022/03/30 01:47:58;;;;;;;0.00;0.00;;;;;;;12.03;57.97;98419.34;6278128;22;20030;-83
2022/03/30 01:50:25;;;;;;;0.00;0.00;;;;;;;11.98;58.39;98425.59;6278890;22;20065;-78
2022/03/30 01:52:52;;;;;;;0.10;0.10;;;;;;;11.94;58.23;98428.03;6278147;22;20003;-78
2022/03/30 01:55:18;;;;;;;0.00;0.00;;;;;;;11.93;58.22;98423.78;6278566;22;20059;-78
2022/03/30 01:57:44;;;;;;;0.25;0.25;;;;;;;11.91;58.37;98423.28;6278251;22;20003;-81
2022/03/30 02:00:11;;;;;;;0.00;0.00;;;;;;;11.89;58.42;98425.47;6278535;22;20419;-78
2022/03/30 02:02:38;;;;;;;0.00;0.00;;;;;;;11.87;58.38;98424.97;6278279;22;19999;-77
2022/03/30 02:05:05;;;;;;;0.00;0.00;;;;;;;11.84;58.59;98423.69;6278775;22;20440;-79
2022/03/30 02:07:30;;;;;;;0.00;0.00;;;;;;;11.82;58.67;98427.78;6278665;22;20471;-78
2022/03/30 02:09:56;;;;;;;0.00;0.00;;;;;;;11.80;58.54;98433.44;6278106;22;20003;-82
2022/03/30 02:12:21;;;;;;;0.00;0.00;;;;;;;11.80;58.45;98432.63;6278653;22;20021;-82
2022/03/30 02:14:49;;;;;;;0.00;0.00;;;;;;;11.78;58.43;98432.13;6277650;22;20007;-83
2022/03/30 02:17:15;;;;;;;0.00;0.00;;;;;;;11.77;58.26;98441.28;6278501;22;20003;-80
2022/03/30 02:19:40;;;;;;;0.00;0.00;;;;;;;11.77;58.42;98433.22;6278207;22;20467;-78
2022/03/30 02:22:06;;;;;;;0.00;0.00;;;;;;;11.77;58.42;98438.59;6278426;22;20003;-78
2022/03/30 02:24:31;;;;;;;0.00;0.00;;;;;;;11.73;57.93;98446.44;6277977;22;20015;-80
2022/03/30 02:26:57;;;;;;;0.00;0.00;;;;;;;11.69;58.25;98446.22;6278092;22;20039;-78
2022/03/30 02:29:22;;;;;;;0.00;0.00;;;;;;;11.64;58.32;98448.97;6278549;22;20026;-79
2022/03/30 02:31:48;;;;;;;0.00;0.00;;;;;;;11.60;58.00;98453.34;6304817;22;20074;-77
2022/03/30 02:34:13;;;;;;;0.00;0.00;;;;;;;11.58;57.95;98454.75;6305843;22;19999;-79
2022/03/30 02:36:40;;;;;;;0.00;0.00;;;;;;;11.54;58.29;98459.91;6278001;22;20014;-83
2022/03/30 02:39:05;;;;;;;0.00;0.00;;;;;;;11.51;58.74;98463.16;6278286;22;20011;-82
2022/03/30 02:41:31;;;;;;;0.00;0.00;;;;;;;11.45;58.15;98453.63;6278421;22;20079;-83
2022/03/30 02:43:56;;;;;;;0.00;0.00;;;;;;;11.41;58.39;98463.34;6278025;22;20010;-80
2022/03/30 02:46:22;;;;;;;0.00;0.00;;;;;;;11.37;58.67;98469.28;6278206;22;20017;-79
2022/03/30 02:48:47;;;;;;;0.00;0.00;;;;;;;11.34;58.50;98458.41;6305043;22;20429;-81
2022/03/30 02:51:13;;;;;;;0.00;0.00;;;;;;;11.33;58.37;98464.84;6278238;22;20037;-81
2022/03/30 02:53:39;;;;;;;0.00;0.00;;;;;;;11.31;58.27;98462.44;6277770;22;20451;-78
2022/03/30 02:56:05;;;;;;;0.00;0.00;;;;;;;11.32;58.35;98468.59;6278071;22;20082;-79
2022/03/30 02:58:31;;;;;;;0.00;0.00;;;;;;;11.30;58.18;98468.09;6278230;22;20349;-78
2022/03/30 03:00:57;;;;;;;0.00;0.00;;;;;;;11.31;57.96;98467.00;6277469;22;20007;-80
2022/03/30 03:03:23;;;;;;;0.00;0.00;;;;;;;11.26;58.00;98473.25;6278170;22;20010;-81
2022/03/30 03:05:49;;;;;;;0.00;0.00;;;;;;;11.24;58.55;98472.75;6277602;22;20011;-86
2022/03/30 03:08:14;;;;;;;0.00;0.00;;;;;;;11.19;58.40;98470.16;6278150;22;20008;-85
2022/03/30 03:10:43;;;;;;;0.00;0.00;;;;;;;11.15;58.19;98475.28;6277664;22;20007;-82
2022/03/30 03:13:09;;;;;;;0.00;0.00;;;;;;;11.13;58.49;98479.34;6278065;22;20018;-81
2022/03/30 03:15:36;;;;;;;0.00;0.00;;;;;;;11.15;58.39;98477.97;6277812;22;20011;-79
2022/03/30 03:18:03;;;;;;;0.00;0.00;;;;;;;11.09;58.49;98479.16;6277996;22;20085;-79
2022/03/30 03:20:29;;;;;;;0.00;0.00;;;;;;;11.03;58.18;98470.44;6277895;22;19999;-85
2022/03/30 03:22:56;;;;;;;0.00;0.00;;;;;;;11.07;58.31;98472.50;6277403;22;20022;-78
2022/03/30 03:25:22;;;;;;;0.00;0.00;;;;;;;11.08;57.96;98479.44;6277238;22;20330;-83
2022/03/30 03:27:48;;;;;;;0.00;0.00;;;;;;;11.03;57.83;98480.31;6277404;22;20459;-82
2022/03/30 03:30:14;;;;;;;0.00;0.00;;;;;;;11.02;58.15;98476.88;6277308;22;20007;-80
2022/03/30 03:32:40;;;;;;;0.00;0.00;;;;;;;11.00;58.18;98471.00;6277556;22;20007;-77
2022/03/30 03:35:09;;;;;;;0.00;0.00;;;;;;;10.99;58.01;98468.63;6305043;22;20030;-80
2022/03/30 03:37:38;;;;;;;0.00;0.00;;;;;;;10.97;58.45;98468.91;6277316;22;20440;-86
2022/03/30 03:40:05;;;;;;;0.00;0.00;;;;;;;10.97;58.38;98471.56;6277795;22;20007;-79
2022/03/30 03:42:30;;;;;;;0.00;0.00;;;;;;;10.97;58.07;98465.44;6305428;22;20004;-85
2022/03/30 03:44:55;;;;;;;0.00;0.00;;;;;;;10.97;58.21;98462.75;6277219;22;20014;-83
2022/03/30 03:47:21;;;;;;;4.95;0.52;;;;;;;10.94;58.15;98468.72;6304945;22;20007;-84
2022/03/30 03:49:46;;;;;;;0.00;0.00;;;;;;;10.92;58.48;98469.00;6277446;22;20010;-84
2022/03/30 03:52:12;;;;;;;0.00;0.00;;;;;;;10.93;58.17;98469.78;6277356;22;20078;-79
2022/03/30 03:54:37;;;;;;;0.00;0.00;;;;;;;10.92;58.35;98468.22;6277561;22;20007;-81
2022/03/30 03:57:03;;;;;;;0.00;0.00;;;;;;;10.92;58.02;98466.31;6277573;22;20364;-87
2022/03/30 03:59:29;;;;;;;0.00;0.00;;;;;;;10.91;58.49;98467.38;6277621;22;20149;-85
2022/03/30 04:01:54;;;;;;;0.00;0.00;;;;;;;10.85;58.25;98460.53;6277123;22;20018;-84
2022/03/30 04:04:20;;;;;;;0.00;0.00;;;;;;;10.86;58.43;98467.47;6277533;22;20011;-89
2022/03/30 04:06:45;;;;;;;0.00;0.00;;;;;;;10.79;58.21;98461.72;6277219;22;20014;-84
2022/03/30 04:09:11;;;;;;;0.00;0.00;;;;;;;10.73;58.67;98464.47;6277463;22;20034;-78
2022/03/30 04:11:36;;;;;;;0.00;0.00;;;;;;;10.74;58.54;98465.25;6277112;22;19999;-85
2022/03/30 04:14:02;;;;;;;0.00;0.00;;;;;;;10.76;58.71;98479.13;6277531;22;20007;-82
2022/03/30 04:16:28;;;;;;;0.00;0.00;;;;;;;10.77;58.73;98479.94;6276991;22;20056;-76
2022/03/30 04:18:53;;;;;;;0.00;0.00;;;;;;;10.76;58.58;98476.47;6303900;22;20128;-77
2022/03/30 04:21:19;;;;;;;0.00;0.00;;;;;;;10.76;58.43;98475.69;6303416;22;20025;-78
2022/03/30 04:23:44;;;;;;;0.00;0.00;;;;;;;10.82;58.64;98483.31;6276213;22;20007;-80
2022/03/30 04:26:11;;;;;;;0.00;0.00;;;;;;;10.88;58.07;98486.72;6276849;22;20069;-77
2022/03/30 04:28:40;;;;;;;0.00;0.00;;;;;;;10.89;58.18;98485.63;6304204;22;20046;-77
2022/03/30 04:31:10;;;;;;;0.00;0.00;;;;;;;10.93;58.28;98489.31;6304666;22;19999;-78
2022/03/30 04:33:36;;;;;;;0.00;0.00;;;;;;;11.02;58.11;98486.75;6304283;22;20003;-78
2022/03/30 04:36:03;;;;;;;0.00;0.00;;;;;;;11.12;58.22;98496.50;6276869;22;20014;-78
2022/03/30 04:38:28;;;;;;;0.00;0.00;;;;;;;11.22;57.50;98496.34;6306500;22;20003;-78
2022/03/30 04:40:54;;;;;;;0.00;0.00;;;;;;;11.36;57.68;98493.69;6279056;22;20007;-78
2022/03/30 04:43:19;;;;;;;0.00;0.00;;;;;;;11.54;58.13;98487.47;6279207;22;20042;-77
2022/03/30 04:45:45;;;;;;;0.00;0.00;;;;;;;11.74;56.96;98484.72;6306464;22;20029;-77
2022/03/30 04:48:10;;;;;;;0.00;0.00;;;;;;;11.93;56.44;98493.44;6279210;22;20007;-78
2022/03/30 04:50:36;;;;;;;0.00;0.00;;;;;;;12.17;56.25;98495.94;6279054;22;20424;-77
2022/03/30 04:53:01;;;;;;;0.00;0.00;;;;;;;12.39;55.78;98483.69;6279169;22;20364;-77
2022/03/30 04:55:27;;;;;;;0.00;0.00;;;;;;;12.66;54.58;98492.75;6279167;22;20014;-78
2022/03/30 04:57:53;;;;;;;0.00;0.00;;;;;;;12.88;54.05;98499.25;6278806;22;20391;-78
2022/03/30 05:00:18;;;;;;;0.00;0.00;;;;;;;13.07;53.43;98499.06;6279338;22;20485;-78
2022/03/30 05:02:44;;;;;;;0.00;0.00;;;;;;;13.28;53.27;98497.47;6278870;22;20004;-78
2022/03/30 05:05:10;;;;;;;0.00;0.00;;;;;;;13.54;52.47;98498.75;6306613;22;20474;-78
2022/03/30 05:07:37;;;;;;;0.20;0.20;;;;;;;13.76;52.05;98495.19;6279007;22;20031;-77
2022/03/30 05:10:08;;;;;;;0.00;0.00;;;;;;;14.02;51.32;98497.94;6279047;22;19999;-77
2022/03/30 05:12:34;;;;;;;0.00;0.00;;;;;;;14.29;50.94;98496.13;6306126;22;20007;-78
2022/03/30 05:14:59;;;;;;;0.08;0.08;;;;;;;14.54;49.88;98493.78;6278664;22;20030;-79
2022/03/30 05:17:25;;;;;;;0.00;0.00;;;;;;;14.73;49.58;98493.50;6306191;22;20003;-78
2022/03/30 05:19:50;;;;;;;0.00;0.00;;;;;;;15.05;49.11;98508.38;6278876;22;20015;-79
2022/03/30 05:22:16;;;;;;;0.10;0.10;;;;;;;15.30;48.46;98510.56;6278982;22;20003;-79
2022/03/30 05:24:41;;;;;;;0.00;0.00;;;;;;;15.53;47.08;98511.91;6305590;22;20046;-78
2022/03/30 05:27:09;;;;;;;0.10;0.10;;;;;;;15.78;46.32;98506.75;6278854;22;20011;-79
2022/03/30 05:29:35;;;;;;;0.25;0.25;;;;;;;16.00;45.81;98511.13;6278554;22;20094;-78
2022/03/30 05:32:00;;;;;;;0.10;0.10;;;;;;;16.21;45.10;98520.38;6278442;22;20010;-78
2022/03/30 05:34:26;;;;;;;0.05;0.05;;;;;;;16.42;44.41;98517.72;6278898;22;19999;-79
2022/03/30 05:36:51;;;;;;;0.10;0.10;;;;;;;16.56;43.65;98506.66;6278587;22;20007;-78
2022/03/30 05:39:17;;;;;;;0.08;0.08;;;;;;;16.67;43.53;98504.34;6278817;22;20094;-78
2022/03/30 05:41:43;;;;;;;0.00;0.00;;;;;;;16.82;43.59;98511.88;6278548;22;20464;-79
2022/03/30 05:44:08;;;;;;;0.10;0.10;;;;;;;16.95;43.42;98505.44;6278871;22;20003;-80
2022/03/30 05:46:36;;;;;;;0.00;0.00;;;;;;;17.10;43.11;98509.41;6278735;22;20007;-81
2022/03/30 05:49:04;;;;;;;0.10;0.10;;;;;;;17.21;42.39;98509.00;6277804;22;20519;-80
2022/03/30 05:51:30;;;;;;;;;;;;;;;17.32;42.91;98504.75;6306313;22;20004;-80
2022/03/30 05:53:56;;;;;;;0.05;0.05;;;;;;;17.44;42.91;98506.69;6305867;22;19903;-80
2022/03/30 05:57:00;;;;;;;0.10;0.10;;;;;;;17.58;42.11;98504.47;6278679;22;20011;-80
2022/03/30 05:59:08;;;;;;;0.10;0.10;;;;;;;17.76;42.07;98510.47;6305589;22;20030;-80
2022/03/30 06:01:34;;;;;;;0.00;0.00;;;;;;;17.82;42.32;98513.75;6278735;22;20065;-81
2022/03/30 06:04:00;;;;;;;0.13;0.13;;;;;;;17.85;42.02;98507.63;6305695;22;20063;-79
2022/03/30 06:06:25;;;;;;;0.03;0.03;;;;;;;17.96;41.86;98515.34;6278783;22;20078;-80
2022/03/30 06:08:51;;;;;;;0.15;0.15;;;;;;;17.93;41.47;98509.44;6278315;22;20004;-80
2022/03/30 06:11:16;;;;;;;0.38;0.38;;;;;;;17.99;41.83;98510.06;6278611;22;20007;-80
2022/03/30 06:13:42;;;;;;;0.10;0.10;;;;;;;18.00;42.15;98513.53;6278195;22;20356;-79
2022/03/30 06:16:08;;;;;;;0.00;0.00;;;;;;;18.01;42.06;98509.72;6278502;22;19999;-80
2022/03/30 06:18:33;;;;;;;0.00;0.00;;;;;;;18.08;41.96;98516.13;6278504;22;20010;-79
2022/03/30 06:20:59;;;;;;;0.00;0.00;;;;;;;18.15;41.73;98520.19;6278320;22;20072;-79
2022/03/30 06:23:24;;;;;;;0.45;0.45;;;;;;;18.21;41.85;98518.81;6278598;22;20027;-81
2022/03/30 06:25:51;;;;;;;0.10;0.10;;;;;;;18.22;41.61;98513.09;6278090;22;20338;-80
2022/03/30 06:28:17;;;;;;;0.00;0.00;;;;;;;18.29;41.32;98504.38;6278443;22;20033;-81
2022/03/30 06:30:43;;;;;;;0.10;0.10;;;;;;;18.42;41.21;98513.28;6278105;22;20437;-81
2022/03/30 06:33:08;;;;;;;0.00;0.00;;;;;;;18.49;41.18;98508.09;6278422;22;20010;-79
2022/03/30 06:35:34;;;;;;;0.10;0.10;;;;;;;18.55;41.12;98509.41;6278343;22;20571;-81
2022/03/30 06:37:59;;;;;;;0.00;0.00;;;;;;;18.60;40.67;98508.38;6278173;22;20034;-79
2022/03/30 06:40:25;;;;;;;0.10;0.10;;;;;;;18.68;40.32;98512.88;6278440;22;20007;-81
2022/03/30 06:42:53;;;;;;;0.00;0.00;;;;;;;18.78;40.02;98518.94;6278246;22;19999;-80
2022/03/30 06:45:18;;;;;;;;;;;;;;;18.78;40.19;98521.66;6278321;22;20087;-80
2022/03/30 06:47:44;;;;;;;0.10;0.10;;;;;;;18.81;40.15;98521.75;6277839;22;19933;-81
2022/03/30 06:50:12;;;;;;;0.10;0.10;;;;;;;18.83;40.73;98526.81;6278247;22;20436;-80
2022/03/30 06:52:37;;;;;;;0.10;0.10;;;;;;;18.86;39.85;98529.63;6278072;22;20012;-80
2022/03/30 06:55:05;;;;;;;0.10;0.10;;;;;;;18.88;40.33;98540.13;6277725;22;20010;-81
2022/03/30 06:57:30;;;;;;;0.13;0.13;;;;;;;18.84;40.42;98531.13;6278075;22;20003;-81
2022/03/30 06:59:56;;;;;;;0.00;0.00;;;;;;;18.91;40.46;98534.06;6277636;22;20388;-80
2022/03/30 07:02:22;;;;;;;0.17;0.17;;;;;;;18.86;39.85;98532.34;6278072;22;20008;-80
2022/03/30 07:04:47;;;;;;;0.08;0.08;;;;;;;18.90;40.33;98532.44;6277777;22;20011;-81
2022/03/30 07:10:15;;;;;;;0.10;0.10;;;;;;;18.97;39.90;98529.97;6304818;22;20369;-80
2022/03/30 07:12:50;;;;;;;0.00;0.00;;;;;;;19.11;39.64;98536.91;6278036;22;20010;-80
2022/03/30 07:15:18;;;;;;;0.03;0.03;;;;;;;19.11;39.58;98529.56;6277956;22;20085;-80
2022/03/30 07:17:45;;;;;;;0.00;0.00;;;;;;;19.24;39.93;98533.03;6277671;22;20356;-80
2022/03/30 07:20:10;;;;;;;3.72;0.55;;;;;;;19.33;39.28;98539.09;6277818;22;20046;-80
2022/03/30 07:22:36;;;;;;;0.10;0.10;;;;;;;19.45;38.61;98545.56;6277231;22;20007;-80
2022/03/30 07:25:02;;;;;;;0.10;0.10;;;;;;;19.55;38.69;98546.97;6276481;22;20484;-80
2022/03/30 07:27:27;;;;;;;0.43;0.43;;;;;;;19.70;38.60;98550.84;6276582;22;20021;-80
2022/03/30 07:29:53;;;;;;;0.10;0.10;;;;;;;19.78;37.97;98556.09;6276449;22;20008;-81
2022/03/30 07:32:19;;;;;;;0.10;0.10;;;;;;;19.79;38.00;98560.38;6276560;22;20108;-80
2022/03/30 07:34:45;;;;;;;0.63;0.63;;;;;;;19.74;38.06;98546.28;6276250;22;20007;-80
2022/03/30 07:37:10;;;;;;;0.10;0.10;;;;;;;19.86;37.51;98556.31;6276413;22;20463;-80
2022/03/30 07:39:36;;;;;;;0.10;0.10;;;;;;;19.94;37.00;98545.25;6303929;22;20424;-80
2022/03/30 07:42:02;;;;;;;0.03;0.03;;;;;;;19.98;36.79;98551.59;6276111;22;20068;-79
2022/03/30 07:44:28;;;;;;;0.08;0.08;;;;;;;20.02;36.22;98550.88;6303782;22;20003;-78
2022/03/30 07:46:54;;;;;;;0.20;0.20;;;;;;;19.98;36.62;98545.34;6276105;22;20014;-80
2022/03/30 07:49:20;;;;;;;0.43;0.43;;;;;;;19.99;36.32;98547.72;6276455;22;20004;-80
2022/03/30 07:51:45;;;;;;;0.00;0.00;;;;;;;20.05;36.47;98550.94;6276245;22;20018;-80
2022/03/30 07:54:11;;;;;;;0.00;0.00;;;;;;;20.05;36.46;98542.03;6276509;22;20023;-80
2022/03/30 07:56:36;;;;;;;0.10;0.10;;;;;;;20.03;36.26;98539.69;6276363;22;20027;-80
2022/03/30 07:59:02;;;;;;;0.30;0.30;;;;;;;20.00;35.58;98535.72;6276183;22;20014;-79
2022/03/30 08:01:27;;;;;;;0.05;0.05;;;;;;;19.97;35.87;98528.28;6303687;22;20381;-81
2022/03/30 08:03:53;;;;;;;0.20;0.20;;;;;;;20.05;35.79;98536.59;6303414;22;20074;-79
2022/03/30 08:06:19;;;;;;;0.00;0.00;;;;;;;20.07;35.64;98529.69;6276423;22;20386;-79
2022/03/30 08:08:44;;;;;;;1.35;0.55;;;;;;;20.14;36.12;98527.13;6276180;22;20031;-79
2022/03/30 08:11:10;;;;;;;0.05;0.05;;;;;;;20.27;35.72;98535.94;6276079;22;20065;-79
2022/03/30 08:13:36;;;;;;;0.00;0.00;;;;;;;20.33;35.49;98530.25;6276076;22;20004;-80
2022/03/30 08:16:02;;;;;;;0.22;0.22;;;;;;;20.35;35.21;98530.69;6275626;22;20007;-81
2022/03/30 08:18:28;;;;;;;0.15;0.15;;;;;;;20.35;35.57;98533.41;6276321;22;19999;-80
2022/03/30 08:23:38;;;;;;;0.03;0.03;;;;;;;20.28;35.89;98534.81;6303512;22;20094;-78
2022/03/30 08:26:03;;;;;;;0.10;0.10;;;;;;;20.09;36.42;98519.28;6226500;22;1159869;-80
2022/03/30 08:28:29;;;;;;;0.00;0.00;;;;;;;20.00;35.71;98519.44;6277486;22;20011;-78
2022/03/30 08:30:55;;;;;;;0.43;0.43;;;;;;;20.00;35.18;98522.16;6277170;22;20026;-79
2022/03/30 08:33:23;;;;;;;0.00;0.00;;;;;;;20.05;35.27;98517.59;6277343;22;20037;-79
2022/03/30 08:35:50;;;;;;;0.35;0.35;;;;;;;20.07;34.71;98523.47;6277214;22;20013;-80
2022/03/30 08:38:16;;;;;;;0.10;0.10;;;;;;;20.04;34.76;98516.81;6277322;22;20007;-79
2022/03/30 08:40:42;;;;;;;0.08;0.08;;;;;;;20.06;34.48;98511.81;6277338;22;20148;-80
2022/03/30 08:43:07;;;;;;;0.47;0.47;;;;;;;20.12;34.86;98507.69;6276966;22;20050;-80
2022/03/30 08:45:33;;;;;;;0.20;0.20;;;;;;;20.22;34.06;98502.88;6304564;22;20010;-80
2022/03/30 08:48:00;;;;;;;5.32;0.22;;;;;;;20.29;33.99;98503.03;6304278;22;20526;-80
2022/03/30 08:50:26;;;;;;;0.68;0.68;;;;;;;20.34;34.66;98501.97;6277017;22;20060;-80
2022/03/30 08:52:55;;;;;;;0.20;0.20;;;;;;;20.39;34.66;98499.75;6277094;22;20007;-79
2022/03/30 08:55:21;;;;;;;0.30;0.30;;;;;;;20.36;34.40;98489.59;6277226;22;20014;-79
2022/03/30 08:57:47;;;;;;;0.35;0.35;;;;;;;20.35;34.21;98493.47;6277041;22;20010;-79
2022/03/30 09:00:18;;;;;;;0.10;0.10;;;;;;;20.37;34.17;98487.66;6277217;22;20003;-79
2022/03/30 09:03:00;;;;;;;0.00;0.00;;;;;;;20.38;34.44;98483.81;6304707;22;19999;-80
2022/03/30 09:05:27;;;;;;;0.57;0.45;;;;;;;20.44;33.74;98479.69;6304708;22;20011;-80
2022/03/30 09:08:25;;;;;;;0.00;0.00;;;;;;;20.49;33.17;98468.53;6277085;22;20007;-80
2022/03/30 09:10:52;;;;;;;0.10;0.10;;;;;;;20.55;33.07;98466.31;6276896;22;20433;-80
2022/03/30 09:13:18;;;;;;;0.20;0.20;;;;;;;20.59;32.24;98462.53;6276820;22;20095;-79
2022/03/30 09:15:46;;;;;;;0.65;0.30;;;;;;;20.63;32.08;98459.91;6277154;22;19999;-79
2022/03/30 09:18:15;;;;;;;0.00;0.00;;;;;;;20.73;32.20;98453.91;6304198;22;20086;-79
2022/03/30 09:20:52;;;;;;;0.10;0.10;;;;;;;20.79;31.25;98443.53;6277311;22;20007;-79
2022/03/30 09:23:18;;;;;;;0.68;0.68;;;;;;;20.85;30.98;98439.38;6277987;22;20015;-80
2022/03/30 09:25:48;;;;;;;0.10;0.10;;;;;;;20.91;31.16;98435.22;6278931;22;20409;-79
2022/03/30 09:28:16;;;;;;;0.20;0.20;;;;;;;21.01;31.33;98439.28;6279127;22;20008;-79
2022/03/30 09:30:43;;;;;;;5.57;0.47;;;;;;;21.06;30.47;98422.66;6279024;22;20456;-79
2022/03/30 09:33:10;;;;;;;0.38;0.38;;;;;;;21.15;30.38;98437.97;6278855;22;20011;-80
2022/03/30 09:35:42;;;;;;;0.10;0.10;;;;;;;21.23;30.58;98421.41;6278922;22;20345;-79
2022/03/30 09:38:11;;;;;;;0.75;0.73;;;;;;;21.29;29.84;98424.63;6305628;22;20347;-80
2022/03/30 09:40:49;;;;;;;0.10;0.10;;;;;;;21.36;29.43;98419.31;6278896;22;20011;-79
2022/03/30 09:43:29;;;;;;;0.28;0.28;;;;;;;21.42;29.02;98412.41;6278899;22;20038;-80
2022/03/30 09:46:08;;;;;;;0.10;0.10;;;;;;;21.49;28.77;98422.59;6278493;22;20011;-80
2022/03/30 09:48:38;;;;;;;0.30;0.30;;;;;;;21.56;28.33;98416.50;6278678;22;20374;-79
2022/03/30 09:51:06;;;;;;;0.10;0.10;;;;;;;21.55;27.33;98414.94;6278363;22;20344;-80
2022/03/30 09:53:34;;;;;;;0.22;0.22;;;;;;;21.56;28.49;98411.88;6278677;22;20022;-80
2022/03/30 09:56:04;;;;;;;1.40;1.35;;;;;;;21.64;28.78;98409.25;6278232;22;20010;-80
2022/03/30 09:58:35;;;;;;;0.00;0.00;;;;;;;21.74;29.00;98405.94;6278747;22;20460;-80
2022/03/30 10:01:09;;;;;;;1.00;0.38;;;;;;;21.82;28.59;98399.41;6278448;22;20011;-79
2022/03/30 10:03:51;;;;;;;0.20;0.20;;;;;;;21.87;27.54;98385.50;6278419;22;20060;-79
2022/03/30 10:06:26;;;;;;;0.10;0.10;;;;;;;21.93;27.80;98371.56;6278734;22;20011;-79
2022/03/30 10:08:52;;;;;;;0.25;0.25;;;;;;;21.90;28.17;98368.44;6278276;22;20011;-79
2022/03/30 10:11:20;;;;;;;0.10;0.10;;;;;;;21.91;28.10;98366.50;6278510;22;20007;-79
2022/03/30 10:13:47;;;;;;;1.85;1.40;;;;;;;21.88;28.31;98357.13;6278641;22;20007;-79
2022/03/30 10:16:14;;;;;;;0.10;0.10;;;;;;;21.92;28.58;98359.88;6278222;22;20450;-80
2022/03/30 10:18:40;;;;;;;0.30;0.30;;;;;;;21.96;28.00;98357.22;6278470;22;20007;-79
2022/03/30 10:21:25;;;;;;;0.68;0.45;;;;;;;21.92;28.91;98343.56;6278068;22;20424;-80
2022/03/30 10:24:21;;;;;;;0.32;0.32;;;;;;;21.93;29.01;98345.13;6305505;22;20022;-80
2022/03/30 10:27:03;;;;;;;0.10;0.10;;;;;;;21.94;29.10;98340.47;6278224;22;20050;-80
2022/03/30 10:29:31;;;;;;;0.10;0.10;;;;;;;21.84;29.83;98339.97;6277700;22;20031;-80
2022/03/30 10:32:13;;;;;;;7.80;1.33;;;;;;;21.79;30.20;98343.00;6277966;22;20003;-80
2022/03/30 10:35:04;;;;;;;13.15;1.17;;;;;;;21.79;30.47;98344.94;6278093;22;20010;-80
2022/03/30 10:37:37;;;;;;;0.10;0.10;;;;;;;21.80;29.77;98333.69;6287729;22;20007;-79
2022/03/30 10:40:03;;;;;;;0.17;0.17;;;;;;;21.83;29.62;98326.72;6278035;22;20082;-80
2022/03/30 10:42:54;;;;;;;2.92;0.57;;;;;;;21.90;30.07;98332.28;6278375;22;20030;-81
2022/03/30 10:45:30;;;;;;;0.20;0.20;;;;;;;21.97;29.14;98328.84;6257560;22;20008;-81
2022/03/30 10:48:28;;;;;;;0.10;0.10;;;;;;;21.95;28.57;98322.97;6277587;22;20087;-78
2022/03/30 10:50:55;;;;;;;0.15;0.15;;;;;;;22.00;28.66;98315.28;6305366;22;20003;-79
2022/03/30 10:53:38;;;;;;;0.30;0.30;;;;;;;22.03;27.89;98319.19;6305586;22;19999;-79
2022/03/30 10:56:15;;;;;;;0.40;0.40;;;;;;;22.05;28.40;98322.34;6277762;22;20348;-79
2022/03/30 10:58:55;;;;;;;0.73;0.73;;;;;;;22.00;27.99;98304.38;6278293;22;20003;-79
2022/03/30 11:01:32;;;;;;;0.32;0.32;;;;;;;21.95;27.56;98325.69;6277897;22;20027;-78
2022/03/30 11:03:59;;;;;;;0.10;0.10;;;;;;;21.91;27.07;98307.41;6277842;22;20007;-79
2022/03/30 11:06:25;;;;;;;0.70;0.70;;;;;;;21.90;27.63;98326.81;6278154;22;20379;-79
2022/03/30 11:08:55;;;;;;;0.30;0.30;;;;;;;21.90;26.88;98319.44;6277926;22;20007;-79
2022/03/30 11:11:42;;;;;;;0.20;0.20;;;;;;;21.94;26.93;98316.75;6277897;22;20007;-79
2022/03/30 11:14:32;;;;;;;0.40;0.40;;;;;;;22.01;26.24;98297.00;6305224;22;20373;-79
2022/03/30 11:17:09;;;;;;;1.33;0.63;;;;;;;22.00;26.57;98295.44;6277293;22;20037;-78
2022/03/30 11:19:47;;;;;;;0.20;0.20;;;;;;;22.09;26.71;98292.44;6277339;22;20007;-79
2022/03/30 11:22:13;;;;;;;0.25;0.25;;;;;;;22.13;27.25;98298.69;6277462;22;20399;-80
2022/03/30 11:24:41;;;;;;;0.00;0.00;;;;;;;22.16;27.11;98287.06;6277668;22;20050;-80
2022/03/30 11:27:07;;;;;;;;;;;;;;;22.28;27.21;98294.19;6278069;22;20007;-79
2022/03/30 11:29:41;;;;;;;1.27;1.17;;;;;;;22.27;27.02;98282.50;6277848;22;19913;-80
2022/03/30 11:32:19;;;;;;;0.20;0.20;;;;;;;22.33;27.37;98285.69;6304909;22;20145;-79
2022/03/30 11:34:52;;;;;;;0.15;0.15;;;;;;;22.39;27.68;98281.50;6305276;22;20128;-79
2022/03/30 11:37:19;;;;;;;0.38;0.38;;;;;;;22.38;27.69;98266.31;6277507;22;20009;-79
2022/03/30 11:39:49;;;;;;;0.22;0.22;;;;;;;22.45;27.78;98269.09;6277726;22;20077;-81
2022/03/30 11:42:19;;;;;;;2.67;0.45;;;;;;;22.36;27.02;98247.59;6277466;22;20011;-80
2022/03/30 11:47:32;;;;;;;0.38;0.38;;;;;;;22.32;27.58;98235.88;6304033;22;20479;-79